Sulina, Romania
Current Conditions -  °F | °C
As of 2:00 PM on Friday 28 Nov 2014 (Local Time) from LRTC Reporting Station
Light Snow Light Snow  
Wind Chill: 27°   Ceiling: 1200
Heat Index: 32°   Visibility: 0.93mi
Dew Point: 30°   Wind: 5mph
Humidity: 93%   Direction: 360°N
Pressure: 30.3"   Gusts: NA
Location:  45.16°N, 29.66°E
Report Text: LRTC 281100Z 36004KT 1500 -RASN BR SCT006 OVC012 00/M01 Q1026
Loading
Personal Weather Stations






























Interactive Weather Map New forecast layout! Learn more

10-Day Weather Forecast

Advertisements
Track Severe Weather on mobile